sensor_id;sensor_type;location;lat;lon;timestamp;P1;durP1;ratioP1;P2;durP2;ratioP2
21521;SDS011;10922;45.572;10.002;2022-12-18T00:01:00;38.10;;;26.00;;
21521;SDS011;10922;45.572;10.002;2022-12-18T00:03:31;35.40;;;24.83;;
21521;SDS011;10922;45.572;10.002;2022-12-18T00:05:58;37.70;;;26.00;;
21521;SDS011;10922;45.572;10.002;2022-12-18T00:08:24;37.42;;;25.83;;
21521;SDS011;10922;45.572;10.002;2022-12-18T00:10:49;36.72;;;25.45;;
21521;SDS011;10922;45.572;10.002;2022-12-18T00:13:15;39.15;;;25.45;;
21521;SDS011;10922;45.572;10.002;2022-12-18T00:15:41;34.93;;;24.23;;
21521;SDS011;10922;45.572;10.002;2022-12-18T00:18:06;33.03;;;23.70;;
21521;SDS011;10922;45.572;10.002;2022-12-18T00:20:36;37.65;;;24.90;;
21521;SDS011;10922;45.572;10.002;2022-12-18T00:23:03;32.50;;;23.85;;
21521;SDS011;10922;45.572;10.002;2022-12-18T00:25:29;32.50;;;22.92;;
21521;SDS011;10922;45.572;10.002;2022-12-18T00:27:57;33.22;;;22.85;;
21521;SDS011;10922;45.572;10.002;2022-12-18T00:30:22;33.50;;;23.43;;
21521;SDS011;10922;45.572;10.002;2022-12-18T00:32:48;32.50;;;23.45;;
21521;SDS011;10922;45.572;10.002;2022-12-18T00:35:13;34.17;;;23.88;;
21521;SDS011;10922;45.572;10.002;2022-12-18T00:37:39;30.67;;;21.67;;
21521;SDS011;10922;45.572;10.002;2022-12-18T00:40:05;24.37;;;18.63;;
21521;SDS011;10922;45.572;10.002;2022-12-18T00:42:33;25.30;;;18.88;;
21521;SDS011;10922;45.572;10.002;2022-12-18T00:45:17;24.65;;;18.65;;
21521;SDS011;10922;45.572;10.002;2022-12-18T00:47:43;24.15;;;17.27;;
21521;SDS011;10922;45.572;10.002;2022-12-18T00:50:09;23.52;;;18.35;;
21521;SDS011;10922;45.572;10.002;2022-12-18T00:52:34;24.80;;;17.83;;
21521;SDS011;10922;45.572;10.002;2022-12-18T00:55:00;26.10;;;19.13;;
21521;SDS011;10922;45.572;10.002;2022-12-18T00:57:26;21.90;;;17.10;;
21521;SDS011;10922;45.572;10.002;2022-12-18T00:59:51;22.17;;;16.50;;
21521;SDS011;10922;45.572;10.002;2022-12-18T01:02:17;21.73;;;16.63;;
21521;SDS011;10922;45.572;10.002;2022-12-18T01:04:43;20.17;;;15.70;;
21521;SDS011;10922;45.572;10.002;2022-12-18T01:07:08;19.77;;;15.15;;
21521;SDS011;10922;45.572;10.002;2022-12-18T01:09:34;18.77;;;14.57;;
21521;SDS011;10922;45.572;10.002;2022-12-18T01:12:00;17.23;;;13.57;;
21521;SDS011;10922;45.572;10.002;2022-12-18T01:14:25;18.67;;;14.77;;
21521;SDS011;10922;45.572;10.002;2022-12-18T01:16:51;17.92;;;13.98;;
21521;SDS011;10922;45.572;10.002;2022-12-18T01:19:17;17.50;;;14.47;;
21521;SDS011;10922;45.572;10.002;2022-12-18T01:21:42;19.27;;;14.93;;
21521;SDS011;10922;45.572;10.002;2022-12-18T01:24:09;18.02;;;13.80;;
21521;SDS011;10922;45.572;10.002;2022-12-18T01:26:37;19.05;;;13.85;;
21521;SDS011;10922;45.572;10.002;2022-12-18T01:29:03;16.48;;;12.95;;
21521;SDS011;10922;45.572;10.002;2022-12-18T01:31:30;16.90;;;12.90;;
21521;SDS011;10922;45.572;10.002;2022-12-18T01:33:57;18.98;;;15.05;;
21521;SDS011;10922;45.572;10.002;2022-12-18T01:36:29;18.45;;;14.18;;
21521;SDS011;10922;45.572;10.002;2022-12-18T01:38:55;18.45;;;13.63;;
21521;SDS011;10922;45.572;10.002;2022-12-18T01:41:23;20.90;;;15.75;;
21521;SDS011;10922;45.572;10.002;2022-12-18T01:46:23;16.45;;;12.82;;
21521;SDS011;10922;45.572;10.002;2022-12-18T01:48:52;18.35;;;13.90;;
21521;SDS011;10922;45.572;10.002;2022-12-18T01:51:21;17.73;;;14.05;;
21521;SDS011;10922;45.572;10.002;2022-12-18T01:53:48;20.45;;;14.35;;
21521;SDS011;10922;45.572;10.002;2022-12-18T01:56:14;19.77;;;14.80;;
21521;SDS011;10922;45.572;10.002;2022-12-18T02:01:24;17.73;;;13.50;;
21521;SDS011;10922;45.572;10.002;2022-12-18T02:03:51;18.77;;;14.77;;
21521;SDS011;10922;45.572;10.002;2022-12-18T02:06:25;17.35;;;13.05;;
21521;SDS011;10922;45.572;10.002;2022-12-18T02:12:05;15.18;;;12.75;;
21521;SDS011;10922;45.572;10.002;2022-12-18T02:17:28;18.83;;;14.02;;
21521;SDS011;10922;45.572;10.002;2022-12-18T02:20:17;19.10;;;14.80;;
21521;SDS011;10922;45.572;10.002;2022-12-18T02:26:04;17.60;;;13.73;;
21521;SDS011;10922;45.572;10.002;2022-12-18T02:28:51;16.57;;;13.80;;
21521;SDS011;10922;45.572;10.002;2022-12-18T02:31:27;19.50;;;14.45;;
21521;SDS011;10922;45.572;10.002;2022-12-18T02:33:56;17.67;;;14.23;;
21521;SDS011;10922;45.572;10.002;2022-12-18T02:36:26;18.88;;;14.95;;
21521;SDS011;10922;45.572;10.002;2022-12-18T02:38:54;15.82;;;13.15;;
21521;SDS011;10922;45.572;10.002;2022-12-18T02:41:21;18.05;;;14.63;;
21521;SDS011;10922;45.572;10.002;2022-12-18T02:43:59;19.27;;;15.40;;
21521;SDS011;10922;45.572;10.002;2022-12-18T02:57:30;18.70;;;14.27;;
21521;SDS011;10922;45.572;10.002;2022-12-18T03:00:16;16.48;;;13.70;;
21521;SDS011;10922;45.572;10.002;2022-12-18T03:02:47;20.25;;;15.30;;
21521;SDS011;10922;45.572;10.002;2022-12-18T03:05:21;17.58;;;14.07;;
21521;SDS011;10922;45.572;10.002;2022-12-18T03:07:58;20.33;;;15.02;;
21521;SDS011;10922;45.572;10.002;2022-12-18T03:10:29;18.42;;;14.77;;
21521;SDS011;10922;45.572;10.002;2022-12-18T03:13:08;17.37;;;14.23;;
21521;SDS011;10922;45.572;10.002;2022-12-18T03:15:43;18.45;;;14.50;;
21521;SDS011;10922;45.572;10.002;2022-12-18T03:18:13;16.47;;;13.60;;
21521;SDS011;10922;45.572;10.002;2022-12-18T03:20:48;17.30;;;14.35;;
21521;SDS011;10922;45.572;10.002;2022-12-18T03:23:17;18.02;;;13.95;;
21521;SDS011;10922;45.572;10.002;2022-12-18T03:25:47;19.27;;;14.10;;
21521;SDS011;10922;45.572;10.002;2022-12-18T03:28:19;16.00;;;13.43;;
21521;SDS011;10922;45.572;10.002;2022-12-18T03:30:46;25.57;;;17.73;;
21521;SDS011;10922;45.572;10.002;2022-12-18T03:35:54;16.27;;;12.63;;
21521;SDS011;10922;45.572;10.002;2022-12-18T03:38:20;16.63;;;12.70;;
21521;SDS011;10922;45.572;10.002;2022-12-18T03:49:09;20.15;;;15.30;;
21521;SDS011;10922;45.572;10.002;2022-12-18T03:51:43;15.45;;;11.95;;
21521;SDS011;10922;45.572;10.002;2022-12-18T03:54:16;15.65;;;12.75;;
21521;SDS011;10922;45.572;10.002;2022-12-18T03:56:44;15.85;;;12.85;;
21521;SDS011;10922;45.572;10.002;2022-12-18T03:59:13;15.57;;;12.77;;
21521;SDS011;10922;45.572;10.002;2022-12-18T04:01:42;16.98;;;13.90;;
21521;SDS011;10922;45.572;10.002;2022-12-18T04:04:12;16.85;;;13.20;;
21521;SDS011;10922;45.572;10.002;2022-12-18T04:06:39;16.27;;;13.05;;
21521;SDS011;10922;45.572;10.002;2022-12-18T04:09:07;17.08;;;13.20;;
21521;SDS011;10922;45.572;10.002;2022-12-18T04:11:33;15.85;;;12.55;;
21521;SDS011;10922;45.572;10.002;2022-12-18T04:13:58;14.63;;;11.57;;
21521;SDS011;10922;45.572;10.002;2022-12-18T04:16:25;11.52;;;9.65;;
21521;SDS011;10922;45.572;10.002;2022-12-18T04:18:51;10.90;;;9.63;;
21521;SDS011;10922;45.572;10.002;2022-12-18T04:21:17;11.45;;;9.00;;
21521;SDS011;10922;45.572;10.002;2022-12-18T04:23:43;14.05;;;11.75;;
21521;SDS011;10922;45.572;10.002;2022-12-18T04:26:08;12.88;;;10.40;;
21521;SDS011;10922;45.572;10.002;2022-12-18T04:28:34;10.63;;;8.77;;
21521;SDS011;10922;45.572;10.002;2022-12-18T04:31:00;14.23;;;10.63;;
21521;SDS011;10922;45.572;10.002;2022-12-18T04:33:25;14.50;;;11.60;;
21521;SDS011;10922;45.572;10.002;2022-12-18T04:35:51;11.00;;;9.50;;
21521;SDS011;10922;45.572;10.002;2022-12-18T04:38:16;13.17;;;9.60;;
21521;SDS011;10922;45.572;10.002;2022-12-18T04:40:42;11.27;;;9.63;;
21521;SDS011;10922;45.572;10.002;2022-12-18T04:43:08;12.73;;;10.73;;
21521;SDS011;10922;45.572;10.002;2022-12-18T04:45:34;12.93;;;10.38;;
21521;SDS011;10922;45.572;10.002;2022-12-18T04:48:00;10.90;;;9.43;;
21521;SDS011;10922;45.572;10.002;2022-12-18T04:50:27;10.07;;;8.35;;
21521;SDS011;10922;45.572;10.002;2022-12-18T04:52:53;10.87;;;7.40;;
21521;SDS011;10922;45.572;10.002;2022-12-18T04:55:19;11.82;;;9.35;;
21521;SDS011;10922;45.572;10.002;2022-12-18T04:57:44;11.90;;;8.83;;
21521;SDS011;10922;45.572;10.002;2022-12-18T05:00:10;11.40;;;8.65;;
21521;SDS011;10922;45.572;10.002;2022-12-18T05:02:36;11.63;;;9.57;;
21521;SDS011;10922;45.572;10.002;2022-12-18T05:05:02;12.88;;;10.68;;
21521;SDS011;10922;45.572;10.002;2022-12-18T05:07:28;13.73;;;10.20;;
21521;SDS011;10922;45.572;10.002;2022-12-18T05:09:54;12.93;;;9.82;;
21521;SDS011;10922;45.572;10.002;2022-12-18T05:12:19;12.33;;;9.77;;
21521;SDS011;10922;45.572;10.002;2022-12-18T05:14:45;12.90;;;10.77;;
21521;SDS011;10922;45.572;10.002;2022-12-18T05:17:11;14.02;;;10.15;;
21521;SDS011;10922;45.572;10.002;2022-12-18T05:19:37;10.95;;;9.50;;
21521;SDS011;10922;45.572;10.002;2022-12-18T05:22:02;11.70;;;9.77;;
21521;SDS011;10922;45.572;10.002;2022-12-18T05:24:28;13.23;;;10.47;;
21521;SDS011;10922;45.572;10.002;2022-12-18T05:26:54;10.45;;;7.95;;
21521;SDS011;10922;45.572;10.002;2022-12-18T05:29:19;9.20;;;7.28;;
21521;SDS011;10922;45.572;10.002;2022-12-18T05:31:45;9.40;;;7.20;;
21521;SDS011;10922;45.572;10.002;2022-12-18T05:34:11;6.93;;;6.23;;
21521;SDS011;10922;45.572;10.002;2022-12-18T05:36:36;9.27;;;7.22;;
21521;SDS011;10922;45.572;10.002;2022-12-18T05:39:02;7.37;;;6.20;;
21521;SDS011;10922;45.572;10.002;2022-12-18T05:41:28;8.40;;;7.20;;
21521;SDS011;10922;45.572;10.002;2022-12-18T05:43:54;7.93;;;6.50;;
21521;SDS011;10922;45.572;10.002;2022-12-18T05:46:19;8.35;;;7.22;;
21521;SDS011;10922;45.572;10.002;2022-12-18T05:48:45;9.90;;;7.40;;
21521;SDS011;10922;45.572;10.002;2022-12-18T05:51:15;6.75;;;5.82;;
21521;SDS011;10922;45.572;10.002;2022-12-18T05:53:42;6.37;;;5.20;;
21521;SDS011;10922;45.572;10.002;2022-12-18T05:56:10;10.02;;;6.68;;
21521;SDS011;10922;45.572;10.002;2022-12-18T05:58:42;8.27;;;5.53;;
21521;SDS011;10922;45.572;10.002;2022-12-18T06:01:09;6.45;;;5.85;;
21521;SDS011;10922;45.572;10.002;2022-12-18T06:03:37;7.18;;;5.05;;
21521;SDS011;10922;45.572;10.002;2022-12-18T06:06:15;7.32;;;5.35;;
21521;SDS011;10922;45.572;10.002;2022-12-18T06:08:47;6.78;;;5.45;;
21521;SDS011;10922;45.572;10.002;2022-12-18T06:11:15;6.22;;;5.55;;
21521;SDS011;10922;45.572;10.002;2022-12-18T06:13:42;6.22;;;5.05;;
21521;SDS011;10922;45.572;10.002;2022-12-18T06:16:08;5.78;;;5.22;;
21521;SDS011;10922;45.572;10.002;2022-12-18T06:18:33;5.23;;;4.73;;
21521;SDS011;10922;45.572;10.002;2022-12-18T06:20:59;6.47;;;5.53;;
21521;SDS011;10922;45.572;10.002;2022-12-18T06:23:25;5.85;;;4.85;;
21521;SDS011;10922;45.572;10.002;2022-12-18T06:25:51;6.38;;;5.40;;
21521;SDS011;10922;45.572;10.002;2022-12-18T06:28:17;6.53;;;5.03;;
21521;SDS011;10922;45.572;10.002;2022-12-18T06:30:43;5.87;;;5.27;;
21521;SDS011;10922;45.572;10.002;2022-12-18T06:33:10;7.25;;;5.07;;
21521;SDS011;10922;45.572;10.002;2022-12-18T06:35:35;5.13;;;4.47;;
21521;SDS011;10922;45.572;10.002;2022-12-18T06:38:01;5.90;;;5.30;;
21521;SDS011;10922;45.572;10.002;2022-12-18T06:40:27;5.75;;;4.53;;
21521;SDS011;10922;45.572;10.002;2022-12-18T06:42:53;4.65;;;4.25;;
21521;SDS011;10922;45.572;10.002;2022-12-18T06:45:19;4.20;;;3.80;;
21521;SDS011;10922;45.572;10.002;2022-12-18T06:47:45;4.20;;;3.80;;
21521;SDS011;10922;45.572;10.002;2022-12-18T06:50:11;5.45;;;4.43;;
21521;SDS011;10922;45.572;10.002;2022-12-18T06:52:37;4.90;;;4.05;;
21521;SDS011;10922;45.572;10.002;2022-12-18T06:55:05;5.00;;;4.20;;
21521;SDS011;10922;45.572;10.002;2022-12-18T06:57:32;6.18;;;4.53;;
21521;SDS011;10922;45.572;10.002;2022-12-18T06:59:57;4.97;;;4.10;;
21521;SDS011;10922;45.572;10.002;2022-12-18T07:02:23;4.80;;;4.30;;
21521;SDS011;10922;45.572;10.002;2022-12-18T07:04:50;5.72;;;4.65;;
21521;SDS011;10922;45.572;10.002;2022-12-18T07:07:15;5.93;;;5.18;;
21521;SDS011;10922;45.572;10.002;2022-12-18T07:09:41;7.22;;;6.47;;
21521;SDS011;10922;45.572;10.002;2022-12-18T07:12:06;9.07;;;7.05;;
21521;SDS011;10922;45.572;10.002;2022-12-18T07:14:33;9.05;;;8.10;;
21521;SDS011;10922;45.572;10.002;2022-12-18T07:16:59;8.93;;;7.90;;
21521;SDS011;10922;45.572;10.002;2022-12-18T07:19:24;9.63;;;8.00;;
21521;SDS011;10922;45.572;10.002;2022-12-18T07:21:50;10.02;;;9.02;;
21521;SDS011;10922;45.572;10.002;2022-12-18T07:24:16;8.10;;;7.20;;
21521;SDS011;10922;45.572;10.002;2022-12-18T07:26:42;7.03;;;5.80;;
21521;SDS011;10922;45.572;10.002;2022-12-18T07:29:07;5.73;;;5.07;;
21521;SDS011;10922;45.572;10.002;2022-12-18T07:31:33;6.10;;;5.50;;
21521;SDS011;10922;45.572;10.002;2022-12-18T07:33:59;6.10;;;5.25;;
21521;SDS011;10922;45.572;10.002;2022-12-18T07:36:24;5.90;;;5.30;;
21521;SDS011;10922;45.572;10.002;2022-12-18T07:38:50;6.00;;;5.40;;
21521;SDS011;10922;45.572;10.002;2022-12-18T07:41:17;6.13;;;5.45;;
21521;SDS011;10922;45.572;10.002;2022-12-18T07:43:44;4.72;;;4.32;;
21521;SDS011;10922;45.572;10.002;2022-12-18T07:46:10;5.63;;;4.10;;
21521;SDS011;10922;45.572;10.002;2022-12-18T07:48:38;5.22;;;4.00;;
21521;SDS011;10922;45.572;10.002;2022-12-18T07:51:08;5.43;;;4.23;;
21521;SDS011;10922;45.572;10.002;2022-12-18T07:53:34;4.78;;;4.00;;
21521;SDS011;10922;45.572;10.002;2022-12-18T07:56:02;4.47;;;4.07;;
21521;SDS011;10922;45.572;10.002;2022-12-18T07:58:30;4.78;;;3.55;;
21521;SDS011;10922;45.572;10.002;2022-12-18T08:01:05;5.43;;;3.97;;
21521;SDS011;10922;45.572;10.002;2022-12-18T08:03:32;4.23;;;3.83;;
21521;SDS011;10922;45.572;10.002;2022-12-18T08:06:01;6.28;;;4.10;;
21521;SDS011;10922;45.572;10.002;2022-12-18T08:08:28;5.40;;;4.00;;
21521;SDS011;10922;45.572;10.002;2022-12-18T08:10:54;4.93;;;3.88;;
21521;SDS011;10922;45.572;10.002;2022-12-18T08:13:20;4.60;;;3.97;;
21521;SDS011;10922;45.572;10.002;2022-12-18T08:15:46;4.70;;;3.87;;
21521;SDS011;10922;45.572;10.002;2022-12-18T08:18:19;6.00;;;4.35;;
21521;SDS011;10922;45.572;10.002;2022-12-18T08:20:45;5.90;;;4.32;;
21521;SDS011;10922;45.572;10.002;2022-12-18T08:23:11;6.73;;;4.97;;
21521;SDS011;10922;45.572;10.002;2022-12-18T08:25:36;7.47;;;6.20;;
21521;SDS011;10922;45.572;10.002;2022-12-18T08:28:02;5.68;;;5.07;;
21521;SDS011;10922;45.572;10.002;2022-12-18T08:30:28;4.28;;;3.28;;
21521;SDS011;10922;45.572;10.002;2022-12-18T08:32:53;6.87;;;3.63;;
21521;SDS011;10922;45.572;10.002;2022-12-18T08:35:19;5.53;;;4.20;;
21521;SDS011;10922;45.572;10.002;2022-12-18T08:37:45;4.80;;;4.30;;
21521;SDS011;10922;45.572;10.002;2022-12-18T08:40:10;4.03;;;3.40;;
21521;SDS011;10922;45.572;10.002;2022-12-18T08:42:37;4.68;;;3.85;;
21521;SDS011;10922;45.572;10.002;2022-12-18T08:45:22;4.70;;;3.35;;
21521;SDS011;10922;45.572;10.002;2022-12-18T08:47:47;4.50;;;3.77;;
21521;SDS011;10922;45.572;10.002;2022-12-18T08:50:13;4.33;;;3.70;;
21521;SDS011;10922;45.572;10.002;2022-12-18T08:52:39;3.45;;;3.10;;
21521;SDS011;10922;45.572;10.002;2022-12-18T08:55:05;3.92;;;3.38;;
21521;SDS011;10922;45.572;10.002;2022-12-18T08:57:31;4.93;;;3.72;;
21521;SDS011;10922;45.572;10.002;2022-12-18T08:59:57;6.53;;;4.07;;
21521;SDS011;10922;45.572;10.002;2022-12-18T09:02:23;5.10;;;4.43;;
21521;SDS011;10922;45.572;10.002;2022-12-18T09:04:49;8.32;;;4.50;;
21521;SDS011;10922;45.572;10.002;2022-12-18T09:07:15;4.90;;;4.40;;
21521;SDS011;10922;45.572;10.002;2022-12-18T09:09:41;5.38;;;4.40;;
21521;SDS011;10922;45.572;10.002;2022-12-18T09:12:07;5.63;;;4.15;;
21521;SDS011;10922;45.572;10.002;2022-12-18T09:14:32;5.27;;;4.30;;
21521;SDS011;10922;45.572;10.002;2022-12-18T09:16:58;5.13;;;4.40;;
21521;SDS011;10922;45.572;10.002;2022-12-18T09:19:24;5.93;;;4.80;;
21521;SDS011;10922;45.572;10.002;2022-12-18T09:21:49;6.43;;;5.10;;
21521;SDS011;10922;45.572;10.002;2022-12-18T09:24:15;6.72;;;5.68;;
21521;SDS011;10922;45.572;10.002;2022-12-18T09:26:41;9.48;;;8.38;;
21521;SDS011;10922;45.572;10.002;2022-12-18T09:29:07;8.80;;;6.60;;
21521;SDS011;10922;45.572;10.002;2022-12-18T09:31:33;7.80;;;6.93;;
21521;SDS011;10922;45.572;10.002;2022-12-18T09:33:59;7.57;;;6.75;;
21521;SDS011;10922;45.572;10.002;2022-12-18T09:36:25;9.40;;;8.35;;
21521;SDS011;10922;45.572;10.002;2022-12-18T09:38:50;7.70;;;6.90;;
21521;SDS011;10922;45.572;10.002;2022-12-18T09:44:52;7.57;;;6.68;;
21521;SDS011;10922;45.572;10.002;2022-12-18T09:49:46;6.78;;;5.30;;
21521;SDS011;10922;45.572;10.002;2022-12-18T09:52:19;6.35;;;5.75;;
21521;SDS011;10922;45.572;10.002;2022-12-18T09:57:56;6.70;;;5.93;;
21521;SDS011;10922;45.572;10.002;2022-12-18T10:00:27;8.13;;;6.47;;
21521;SDS011;10922;45.572;10.002;2022-12-18T10:02:56;5.90;;;5.30;;
21521;SDS011;10922;45.572;10.002;2022-12-18T10:10:47;8.65;;;7.85;;
21521;SDS011;10922;45.572;10.002;2022-12-18T10:21:45;7.30;;;6.63;;
21521;SDS011;10922;45.572;10.002;2022-12-18T10:26:45;10.38;;;9.38;;
21521;SDS011;10922;45.572;10.002;2022-12-18T10:29:14;10.10;;;9.10;;
21521;SDS011;10922;45.572;10.002;2022-12-18T10:31:41;10.35;;;9.25;;
21521;SDS011;10922;45.572;10.002;2022-12-18T10:34:09;6.55;;;5.95;;
21521;SDS011;10922;45.572;10.002;2022-12-18T10:36:41;8.00;;;7.18;;
21521;SDS011;10922;45.572;10.002;2022-12-18T10:39:20;6.93;;;6.03;;
21521;SDS011;10922;45.572;10.002;2022-12-18T10:41:49;6.95;;;6.25;;
21521;SDS011;10922;45.572;10.002;2022-12-18T10:44:19;7.23;;;6.53;;
21521;SDS011;10922;45.572;10.002;2022-12-18T10:46:55;9.15;;;6.18;;
21521;SDS011;10922;45.572;10.002;2022-12-18T10:49:30;7.80;;;6.47;;
21521;SDS011;10922;45.572;10.002;2022-12-18T10:54:51;7.97;;;7.18;;
21521;SDS011;10922;45.572;10.002;2022-12-18T11:00:23;8.70;;;7.80;;
21521;SDS011;10922;45.572;10.002;2022-12-18T11:02:47;8.80;;;7.45;;
21521;SDS011;10922;45.572;10.002;2022-12-18T11:05:23;12.43;;;9.17;;
21521;SDS011;10922;45.572;10.002;2022-12-18T11:08:10;10.23;;;8.65;;
21521;SDS011;10922;45.572;10.002;2022-12-18T11:10:46;9.43;;;8.55;;
21521;SDS011;10922;45.572;10.002;2022-12-18T11:13:21;10.63;;;9.53;;
21521;SDS011;10922;45.572;10.002;2022-12-18T11:15:49;11.10;;;9.98;;
21521;SDS011;10922;45.572;10.002;2022-12-18T11:18:16;11.50;;;10.23;;
21521;SDS011;10922;45.572;10.002;2022-12-18T11:20:50;10.85;;;9.75;;
21521;SDS011;10922;45.572;10.002;2022-12-18T11:23:18;11.52;;;9.85;;
21521;SDS011;10922;45.572;10.002;2022-12-18T11:25:50;10.82;;;9.73;;
21521;SDS011;10922;45.572;10.002;2022-12-18T11:28:28;10.70;;;9.60;;
21521;SDS011;10922;45.572;10.002;2022-12-18T11:50:56;22.10;;;18.63;;
21521;SDS011;10922;45.572;10.002;2022-12-18T11:53:27;25.88;;;21.90;;
21521;SDS011;10922;45.572;10.002;2022-12-18T12:01:16;17.40;;;15.30;;
21521;SDS011;10922;45.572;10.002;2022-12-18T12:06:44;13.43;;;12.00;;
21521;SDS011;10922;45.572;10.002;2022-12-18T12:09:32;15.52;;;13.00;;
21521;SDS011;10922;45.572;10.002;2022-12-18T12:18:05;11.68;;;10.48;;
21521;SDS011;10922;45.572;10.002;2022-12-18T12:20:55;12.88;;;11.50;;
21521;SDS011;10922;45.572;10.002;2022-12-18T12:23:51;13.63;;;11.63;;
21521;SDS011;10922;45.572;10.002;2022-12-18T12:26:29;12.68;;;11.25;;
21521;SDS011;10922;45.572;10.002;2022-12-18T12:32:19;11.70;;;10.50;;
21521;SDS011;10922;45.572;10.002;2022-12-18T12:35:08;11.88;;;10.50;;
21521;SDS011;10922;45.572;10.002;2022-12-18T12:38:02;12.80;;;11.50;;
21521;SDS011;10922;45.572;10.002;2022-12-18T12:40:47;13.38;;;11.98;;
21521;SDS011;10922;45.572;10.002;2022-12-18T12:46:00;11.65;;;10.45;;
21521;SDS011;10922;45.572;10.002;2022-12-18T12:48:46;11.75;;;10.55;;
21521;SDS011;10922;45.572;10.002;2022-12-18T12:51:16;11.13;;;10.03;;
21521;SDS011;10922;45.572;10.002;2022-12-18T12:53:48;11.32;;;10.23;;
21521;SDS011;10922;45.572;10.002;2022-12-18T12:56:15;11.37;;;10.23;;
21521;SDS011;10922;45.572;10.002;2022-12-18T12:58:50;10.57;;;9.57;;
21521;SDS011;10922;45.572;10.002;2022-12-18T13:04:31;10.98;;;9.93;;
21521;SDS011;10922;45.572;10.002;2022-12-18T13:07:26;10.65;;;9.57;;
21521;SDS011;10922;45.572;10.002;2022-12-18T13:12:58;11.27;;;10.07;;
21521;SDS011;10922;45.572;10.002;2022-12-18T13:20:38;12.83;;;11.53;;
21521;SDS011;10922;45.572;10.002;2022-12-18T13:25:51;12.70;;;11.38;;
21521;SDS011;10922;45.572;10.002;2022-12-18T13:31:01;12.93;;;11.68;;
21521;SDS011;10922;45.572;10.002;2022-12-18T13:36:01;13.60;;;12.20;;
21521;SDS011;10922;45.572;10.002;2022-12-18T13:41:00;15.50;;;13.90;;
21521;SDS011;10922;45.572;10.002;2022-12-18T13:46:22;17.25;;;15.32;;
21521;SDS011;10922;45.572;10.002;2022-12-18T13:48:50;18.50;;;16.17;;
21521;SDS011;10922;45.572;10.002;2022-12-18T13:51:17;18.63;;;16.10;;
21521;SDS011;10922;45.572;10.002;2022-12-18T13:53:53;18.55;;;16.50;;
21521;SDS011;10922;45.572;10.002;2022-12-18T13:56:24;18.75;;;16.75;;
21521;SDS011;10922;45.572;10.002;2022-12-18T13:59:12;20.35;;;17.48;;
21521;SDS011;10922;45.572;10.002;2022-12-18T14:01:51;20.30;;;17.40;;
21521;SDS011;10922;45.572;10.002;2022-12-18T14:04:29;20.50;;;16.93;;
21521;SDS011;10922;45.572;10.002;2022-12-18T14:07:03;22.33;;;17.70;;
21521;SDS011;10922;45.572;10.002;2022-12-18T14:09:35;23.77;;;18.53;;
21521;SDS011;10922;45.572;10.002;2022-12-18T14:12:06;22.80;;;18.70;;
21521;SDS011;10922;45.572;10.002;2022-12-18T14:14:57;23.80;;;19.60;;
21521;SDS011;10922;45.572;10.002;2022-12-18T14:17:23;23.80;;;19.75;;
21521;SDS011;10922;45.572;10.002;2022-12-18T14:19:50;23.60;;;20.17;;
21521;SDS011;10922;45.572;10.002;2022-12-18T14:22:20;22.85;;;19.38;;
21521;SDS011;10922;45.572;10.002;2022-12-18T14:25:10;28.57;;;22.37;;
21521;SDS011;10922;45.572;10.002;2022-12-18T14:27:45;30.83;;;23.25;;
21521;SDS011;10922;45.572;10.002;2022-12-18T14:30:29;32.25;;;24.38;;
21521;SDS011;10922;45.572;10.002;2022-12-18T14:33:14;32.60;;;24.60;;
21521;SDS011;10922;45.572;10.002;2022-12-18T14:35:52;33.60;;;25.58;;
21521;SDS011;10922;45.572;10.002;2022-12-18T14:38:23;35.47;;;26.77;;
21521;SDS011;10922;45.572;10.002;2022-12-18T14:43:20;37.17;;;27.07;;
21521;SDS011;10922;45.572;10.002;2022-12-18T14:45:46;34.43;;;26.30;;
21521;SDS011;10922;45.572;10.002;2022-12-18T14:48:17;36.58;;;26.90;;
21521;SDS011;10922;45.572;10.002;2022-12-18T14:50:54;34.45;;;26.10;;
21521;SDS011;10922;45.572;10.002;2022-12-18T14:56:01;37.53;;;27.63;;
21521;SDS011;10922;45.572;10.002;2022-12-18T14:58:29;40.35;;;28.20;;
21521;SDS011;10922;45.572;10.002;2022-12-18T15:00:54;42.10;;;30.03;;
21521;SDS011;10922;45.572;10.002;2022-12-18T15:03:21;43.28;;;30.17;;
21521;SDS011;10922;45.572;10.002;2022-12-18T15:05:46;43.45;;;30.50;;
21521;SDS011;10922;45.572;10.002;2022-12-18T15:14:31;50.25;;;34.80;;
21521;SDS011;10922;45.572;10.002;2022-12-18T15:17:25;53.15;;;36.28;;
21521;SDS011;10922;45.572;10.002;2022-12-18T15:19:58;52.42;;;35.15;;
21521;SDS011;10922;45.572;10.002;2022-12-18T15:22:27;51.78;;;35.63;;
21521;SDS011;10922;45.572;10.002;2022-12-18T15:24:58;61.22;;;39.30;;
21521;SDS011;10922;45.572;10.002;2022-12-18T15:27:26;63.05;;;41.22;;
21521;SDS011;10922;45.572;10.002;2022-12-18T15:32:35;62.45;;;39.55;;
21521;SDS011;10922;45.572;10.002;2022-12-18T15:37:34;63.83;;;41.13;;
21521;SDS011;10922;45.572;10.002;2022-12-18T15:40:00;69.57;;;43.92;;
21521;SDS011;10922;45.572;10.002;2022-12-18T15:42:29;69.30;;;44.07;;
21521;SDS011;10922;45.572;10.002;2022-12-18T15:45:14;69.25;;;43.90;;
21521;SDS011;10922;45.572;10.002;2022-12-18T15:47:40;75.15;;;47.22;;
21521;SDS011;10922;45.572;10.002;2022-12-18T15:50:09;78.00;;;47.00;;
21521;SDS011;10922;45.572;10.002;2022-12-18T15:52:41;80.57;;;48.67;;
21521;SDS011;10922;45.572;10.002;2022-12-18T15:55:14;82.13;;;49.45;;
21521;SDS011;10922;45.572;10.002;2022-12-18T15:58:05;85.20;;;50.92;;
21521;SDS011;10922;45.572;10.002;2022-12-18T16:00:32;87.60;;;51.92;;
21521;SDS011;10922;45.572;10.002;2022-12-18T16:03:00;83.85;;;51.85;;
21521;SDS011;10922;45.572;10.002;2022-12-18T16:05:26;91.70;;;52.90;;
21521;SDS011;10922;45.572;10.002;2022-12-18T16:07:53;94.15;;;54.70;;
21521;SDS011;10922;45.572;10.002;2022-12-18T16:10:19;89.53;;;53.40;;
21521;SDS011;10922;45.572;10.002;2022-12-18T16:12:45;93.05;;;53.72;;
21521;SDS011;10922;45.572;10.002;2022-12-18T16:15:12;94.93;;;55.10;;
21521;SDS011;10922;45.572;10.002;2022-12-18T16:17:40;102.88;;;57.47;;
21521;SDS011;10922;45.572;10.002;2022-12-18T16:20:14;108.78;;;59.40;;
21521;SDS011;10922;45.572;10.002;2022-12-18T16:22:41;111.60;;;59.13;;
21521;SDS011;10922;45.572;10.002;2022-12-18T16:27:44;104.88;;;57.25;;
21521;SDS011;10922;45.572;10.002;2022-12-18T16:30:17;107.32;;;59.13;;
21521;SDS011;10922;45.572;10.002;2022-12-18T16:32:44;106.13;;;59.20;;
21521;SDS011;10922;45.572;10.002;2022-12-18T16:35:11;110.65;;;60.70;;
21521;SDS011;10922;45.572;10.002;2022-12-18T16:37:38;120.60;;;60.28;;
21521;SDS011;10922;45.572;10.002;2022-12-18T16:40:06;109.63;;;57.88;;
21521;SDS011;10922;45.572;10.002;2022-12-18T16:42:34;126.50;;;59.85;;
21521;SDS011;10922;45.572;10.002;2022-12-18T16:45:01;116.18;;;58.60;;
21521;SDS011;10922;45.572;10.002;2022-12-18T16:47:27;123.30;;;60.22;;
21521;SDS011;10922;45.572;10.002;2022-12-18T16:49:53;104.33;;;57.43;;
21521;SDS011;10922;45.572;10.002;2022-12-18T16:52:18;121.17;;;57.83;;
21521;SDS011;10922;45.572;10.002;2022-12-18T16:54:45;133.83;;;57.23;;
21521;SDS011;10922;45.572;10.002;2022-12-18T16:57:15;134.02;;;58.90;;
21521;SDS011;10922;45.572;10.002;2022-12-18T16:59:43;167.95;;;82.47;;
21521;SDS011;10922;45.572;10.002;2022-12-18T17:02:13;141.37;;;61.03;;